sensor_id;sensor_type;location;lat;lon;timestamp;pressure;altitude;pressure_sealevel;temperature;humidity
36192;BME280;22233;42.708;23.360;2023-02-04T00:01:31;95226.78;;;3.14;72.07
36192;BME280;22233;42.708;23.360;2023-02-04T00:03:58;95227.59;;;2.94;72.20
36192;BME280;22233;42.708;23.360;2023-02-04T00:06:23;95228.66;;;2.98;72.55
36192;BME280;22233;42.708;23.360;2023-02-04T00:08:49;95224.06;;;3.19;71.31
36192;BME280;22233;42.708;23.360;2023-02-04T00:11:15;95226.78;;;3.04;71.70
36192;BME280;22233;42.708;23.360;2023-02-04T00:13:40;95207.19;;;2.98;72.27
36192;BME280;22233;42.708;23.360;2023-02-04T00:16:06;95193.22;;;3.02;72.43
36192;BME280;22233;42.708;23.360;2023-02-04T00:18:31;95201.78;;;3.19;72.10
36192;BME280;22233;42.708;23.360;2023-02-04T00:20:57;95174.66;;;3.26;70.57
36192;BME280;22233;42.708;23.360;2023-02-04T00:23:22;95195.59;;;3.44;70.49
36192;BME280;22233;42.708;23.360;2023-02-04T00:25:48;95183.78;;;3.30;70.86
36192;BME280;22233;42.708;23.360;2023-02-04T00:28:13;95197.69;;;3.52;70.06
36192;BME280;22233;42.708;23.360;2023-02-04T00:30:38;95203.84;;;3.68;69.27
36192;BME280;22233;42.708;23.360;2023-02-04T00:33:04;95202.44;;;3.76;69.13
36192;BME280;22233;42.708;23.360;2023-02-04T00:35:29;95201.94;;;3.64;69.42
36192;BME280;22233;42.708;23.360;2023-02-04T00:37:55;95203.22;;;3.82;68.41
36192;BME280;22233;42.708;23.360;2023-02-04T00:40:20;95181.19;;;3.85;68.13
36192;BME280;22233;42.708;23.360;2023-02-04T00:42:46;95204.75;;;3.98;67.59
36192;BME280;22233;42.708;23.360;2023-02-04T00:45:11;95188.03;;;3.51;68.07
36192;BME280;22233;42.708;23.360;2023-02-04T00:47:37;95189.84;;;3.66;67.91
36192;BME280;22233;42.708;23.360;2023-02-04T00:50:03;95184.84;;;3.44;68.59
36192;BME280;22233;42.708;23.360;2023-02-04T00:52:28;95182.94;;;3.45;68.27
36192;BME280;22233;42.708;23.360;2023-02-04T00:54:54;95169.56;;;3.29;67.78
36192;BME280;22233;42.708;23.360;2023-02-04T00:57:19;95182.22;;;3.03;69.66
36192;BME280;22233;42.708;23.360;2023-02-04T00:59:44;95158.09;;;2.93;68.53
36192;BME280;22233;42.708;23.360;2023-02-04T01:02:10;95174.72;;;2.95;69.58
36192;BME280;22233;42.708;23.360;2023-02-04T01:04:35;95148.13;;;3.09;68.56
36192;BME280;22233;42.708;23.360;2023-02-04T01:07:01;95163.13;;;3.25;67.39
36192;BME280;22233;42.708;23.360;2023-02-04T01:09:26;95153.47;;;3.24;67.81
36192;BME280;22233;42.708;23.360;2023-02-04T01:11:51;95133.88;;;3.13;67.91
36192;BME280;22233;42.708;23.360;2023-02-04T01:14:17;95150.25;;;3.22;68.33
36192;BME280;22233;42.708;23.360;2023-02-04T01:16:42;95148.84;;;3.40;67.38
36192;BME280;22233;42.708;23.360;2023-02-04T01:19:09;95123.09;;;3.39;67.38
36192;BME280;22233;42.708;23.360;2023-02-04T01:21:35;95128.44;;;3.44;68.16
36192;BME280;22233;42.708;23.360;2023-02-04T01:24:00;95123.81;;;3.55;66.90
36192;BME280;22233;42.708;23.360;2023-02-04T01:26:26;95134.91;;;3.33;68.42
36192;BME280;22233;42.708;23.360;2023-02-04T01:28:51;95118.53;;;3.29;68.11
36192;BME280;22233;42.708;23.360;2023-02-04T01:31:17;95112.38;;;3.29;68.62
36192;BME280;22233;42.708;23.360;2023-02-04T01:33:42;95100.16;;;2.87;69.45
36192;BME280;22233;42.708;23.360;2023-02-04T01:36:08;95087.25;;;2.84;70.16
36192;BME280;22233;42.708;23.360;2023-02-04T01:38:33;95112.69;;;3.22;68.19
36192;BME280;22233;42.708;23.360;2023-02-04T01:40:59;95106.91;;;3.54;67.48
36192;BME280;22233;42.708;23.360;2023-02-04T01:43:25;95089.19;;;3.53;67.79
36192;BME280;22233;42.708;23.360;2023-02-04T01:45:51;95089.44;;;3.57;67.50
36192;BME280;22233;42.708;23.360;2023-02-04T01:48:18;95098.88;;;3.49;67.44
36192;BME280;22233;42.708;23.360;2023-02-04T01:50:46;95099.38;;;3.56;66.92
36192;BME280;22233;42.708;23.360;2023-02-04T01:53:15;95074.75;;;3.44;67.46
36192;BME280;22233;42.708;23.360;2023-02-04T01:55:42;95088.03;;;3.70;67.29
36192;BME280;22233;42.708;23.360;2023-02-04T01:58:09;95082.09;;;3.73;67.04
36192;BME280;22233;42.708;23.360;2023-02-04T02:00:36;95080.41;;;3.87;66.50
36192;BME280;22233;42.708;23.360;2023-02-04T02:03:04;95078.53;;;4.22;65.68
36192;BME280;22233;42.708;23.360;2023-02-04T02:05:34;95065.16;;;4.17;65.88
36192;BME280;22233;42.708;23.360;2023-02-04T02:08:02;95082.59;;;4.19;65.06
36192;BME280;22233;42.708;23.360;2023-02-04T02:10:29;95084.34;;;4.00;65.64
36192;BME280;22233;42.708;23.360;2023-02-04T02:12:55;95076.88;;;3.92;65.87
36192;BME280;22233;42.708;23.360;2023-02-04T02:15:21;95069.97;;;4.20;65.19
36192;BME280;22233;42.708;23.360;2023-02-04T02:17:46;95070.38;;;3.98;65.67
36192;BME280;22233;42.708;23.360;2023-02-04T02:20:15;95066.31;;;4.06;65.78
36192;BME280;22233;42.708;23.360;2023-02-04T02:25:31;95072.25;;;4.37;64.34
36192;BME280;22233;42.708;23.360;2023-02-04T02:27:58;95038.09;;;4.03;65.61
36192;BME280;22233;42.708;23.360;2023-02-04T02:30:24;95030.13;;;4.27;64.88
36192;BME280;22233;42.708;23.360;2023-02-04T02:32:52;95005.69;;;4.24;64.95
36192;BME280;22233;42.708;23.360;2023-02-04T02:35:18;95005.91;;;3.58;66.33
36192;BME280;22233;42.708;23.360;2023-02-04T02:37:43;94991.88;;;3.67;67.29
36192;BME280;22233;42.708;23.360;2023-02-04T02:40:10;95005.50;;;4.15;65.87
36192;BME280;22233;42.708;23.360;2023-02-04T02:42:36;94986.28;;;3.97;66.30
36192;BME280;22233;42.708;23.360;2023-02-04T02:45:14;94988.94;;;4.03;66.16
36192;BME280;22233;42.708;23.360;2023-02-04T02:47:42;94984.34;;;4.03;66.32
36192;BME280;22233;42.708;23.360;2023-02-04T02:50:10;94980.81;;;4.08;66.43
36192;BME280;22233;42.708;23.360;2023-02-04T02:52:39;94958.34;;;3.93;65.76
36192;BME280;22233;42.708;23.360;2023-02-04T02:55:12;94961.53;;;4.00;65.81
36192;BME280;22233;42.708;23.360;2023-02-04T02:57:38;94960.97;;;4.04;65.68
36192;BME280;22233;42.708;23.360;2023-02-04T03:00:16;94991.97;;;4.25;65.08
36192;BME280;22233;42.708;23.360;2023-02-04T03:02:42;94995.00;;;4.43;64.74
36192;BME280;22233;42.708;23.360;2023-02-04T03:05:08;94982.13;;;4.39;65.08
36192;BME280;22233;42.708;23.360;2023-02-04T03:07:34;94985.00;;;4.48;64.87
36192;BME280;22233;42.708;23.360;2023-02-04T03:10:00;94979.13;;;4.17;66.06
36192;BME280;22233;42.708;23.360;2023-02-04T03:12:25;94982.53;;;3.98;65.46
36192;BME280;22233;42.708;23.360;2023-02-04T03:14:50;94982.53;;;3.98;66.10
36192;BME280;22233;42.708;23.360;2023-02-04T03:17:16;94990.50;;;4.09;65.35
36192;BME280;22233;42.708;23.360;2023-02-04T03:19:41;94975.25;;;3.99;65.27
36192;BME280;22233;42.708;23.360;2023-02-04T03:22:07;94962.91;;;4.27;64.70
36192;BME280;22233;42.708;23.360;2023-02-04T03:24:34;94974.03;;;4.15;65.50
36192;BME280;22233;42.708;23.360;2023-02-04T03:27:00;94967.00;;;4.19;65.64
36192;BME280;22233;42.708;23.360;2023-02-04T03:29:25;94956.81;;;3.87;66.71
36192;BME280;22233;42.708;23.360;2023-02-04T03:31:51;94967.63;;;3.77;66.84
36192;BME280;22233;42.708;23.360;2023-02-04T03:34:19;94961.41;;;3.82;66.98
36192;BME280;22233;42.708;23.360;2023-02-04T03:36:45;94983.22;;;3.75;67.72
36192;BME280;22233;42.708;23.360;2023-02-04T03:39:10;94956.81;;;3.82;67.52
36192;BME280;22233;42.708;23.360;2023-02-04T03:41:35;94967.06;;;3.80;66.78
36192;BME280;22233;42.708;23.360;2023-02-04T03:44:01;94973.63;;;3.98;66.84
36192;BME280;22233;42.708;23.360;2023-02-04T03:46:26;94953.59;;;3.85;66.50
36192;BME280;22233;42.708;23.360;2023-02-04T03:48:52;94950.91;;;3.85;67.23
36192;BME280;22233;42.708;23.360;2023-02-04T03:51:18;94929.97;;;4.11;66.26
36192;BME280;22233;42.708;23.360;2023-02-04T03:53:43;94956.94;;;4.30;65.80
36192;BME280;22233;42.708;23.360;2023-02-04T03:56:09;94945.25;;;4.16;65.71
36192;BME280;22233;42.708;23.360;2023-02-04T03:58:34;94952.50;;;4.20;65.74
36192;BME280;22233;42.708;23.360;2023-02-04T04:01:00;94935.66;;;4.34;65.23
36192;BME280;22233;42.708;23.360;2023-02-04T04:03:25;94930.41;;;4.24;65.78
36192;BME280;22233;42.708;23.360;2023-02-04T04:05:50;94915.91;;;4.19;65.56
36192;BME280;22233;42.708;23.360;2023-02-04T04:08:16;94919.38;;;4.25;64.67
36192;BME280;22233;42.708;23.360;2023-02-04T04:10:41;94930.91;;;4.26;65.70
36192;BME280;22233;42.708;23.360;2023-02-04T04:13:06;94910.00;;;4.23;65.78
36192;BME280;22233;42.708;23.360;2023-02-04T04:15:32;94917.34;;;4.36;65.47
36192;BME280;22233;42.708;23.360;2023-02-04T04:17:57;94899.31;;;4.36;64.86
36192;BME280;22233;42.708;23.360;2023-02-04T04:20:23;94906.81;;;4.15;65.69
36192;BME280;22233;42.708;23.360;2023-02-04T04:22:52;94900.66;;;4.15;65.91
36192;BME280;22233;42.708;23.360;2023-02-04T04:25:17;94890.72;;;4.10;65.93
36192;BME280;22233;42.708;23.360;2023-02-04T04:27:43;94911.41;;;4.15;65.83
36192;BME280;22233;42.708;23.360;2023-02-04T04:30:09;94913.63;;;4.08;66.47
36192;BME280;22233;42.708;23.360;2023-02-04T04:32:35;94899.66;;;4.06;66.65
36192;BME280;22233;42.708;23.360;2023-02-04T04:35:00;94920.16;;;3.67;68.80
36192;BME280;22233;42.708;23.360;2023-02-04T04:37:26;94904.75;;;3.44;69.83
36192;BME280;22233;42.708;23.360;2023-02-04T04:39:51;94928.50;;;3.26;70.46
36192;BME280;22233;42.708;23.360;2023-02-04T04:42:17;94912.41;;;3.60;70.50
36192;BME280;22233;42.708;23.360;2023-02-04T04:44:43;94932.38;;;3.49;70.24
36192;BME280;22233;42.708;23.360;2023-02-04T04:47:08;94928.63;;;3.50;71.37
36192;BME280;22233;42.708;23.360;2023-02-04T04:49:33;94917.63;;;3.47;70.30
36192;BME280;22233;42.708;23.360;2023-02-04T04:51:59;94935.19;;;3.68;70.82
36192;BME280;22233;42.708;23.360;2023-02-04T04:54:24;94937.31;;;3.71;70.67
36192;BME280;22233;42.708;23.360;2023-02-04T04:56:50;94936.84;;;3.25;71.98
36192;BME280;22233;42.708;23.360;2023-02-04T04:59:15;94926.97;;;3.54;72.05
36192;BME280;22233;42.708;23.360;2023-02-04T05:01:41;94935.91;;;3.79;70.68
36192;BME280;22233;42.708;23.360;2023-02-04T05:04:06;94920.09;;;3.38;71.75
36192;BME280;22233;42.708;23.360;2023-02-04T05:06:32;94930.69;;;3.58;71.20
36192;BME280;22233;42.708;23.360;2023-02-04T05:08:57;94927.56;;;3.46;72.94
36192;BME280;22233;42.708;23.360;2023-02-04T05:11:22;94923.88;;;3.71;72.33
36192;BME280;22233;42.708;23.360;2023-02-04T05:13:48;94943.38;;;3.53;73.23
36192;BME280;22233;42.708;23.360;2023-02-04T05:16:13;94954.19;;;2.88;75.87
36192;BME280;22233;42.708;23.360;2023-02-04T05:18:39;94954.44;;;3.46;73.97
36192;BME280;22233;42.708;23.360;2023-02-04T05:21:06;94945.44;;;3.22;75.00
36192;BME280;22233;42.708;23.360;2023-02-04T05:23:32;94963.22;;;3.57;73.22
36192;BME280;22233;42.708;23.360;2023-02-04T05:25:57;94964.84;;;3.53;73.23
36192;BME280;22233;42.708;23.360;2023-02-04T05:28:23;94978.38;;;3.77;72.89
36192;BME280;22233;42.708;23.360;2023-02-04T05:30:48;94964.97;;;3.72;72.24
36192;BME280;22233;42.708;23.360;2023-02-04T05:33:14;94984.59;;;3.72;71.38
36192;BME280;22233;42.708;23.360;2023-02-04T05:35:39;94973.41;;;3.94;70.35
36192;BME280;22233;42.708;23.360;2023-02-04T05:38:05;94973.69;;;3.93;69.95
36192;BME280;22233;42.708;23.360;2023-02-04T05:40:30;94970.75;;;3.89;69.89
36192;BME280;22233;42.708;23.360;2023-02-04T05:42:55;94991.81;;;4.11;69.48
36192;BME280;22233;42.708;23.360;2023-02-04T05:45:21;94980.50;;;3.80;69.90
36192;BME280;22233;42.708;23.360;2023-02-04T05:47:46;94984.97;;;3.55;69.76
36192;BME280;22233;42.708;23.360;2023-02-04T05:50:12;94985.16;;;3.64;70.21
36192;BME280;22233;42.708;23.360;2023-02-04T05:52:37;94989.34;;;3.41;69.70
36192;BME280;22233;42.708;23.360;2023-02-04T05:55:04;94970.47;;;3.56;69.18
36192;BME280;22233;42.708;23.360;2023-02-04T05:57:30;94963.56;;;3.45;69.83
36192;BME280;22233;42.708;23.360;2023-02-04T05:59:55;94959.16;;;3.59;69.32
36192;BME280;22233;42.708;23.360;2023-02-04T06:02:21;94977.19;;;3.88;67.59
36192;BME280;22233;42.708;23.360;2023-02-04T06:04:46;94965.97;;;3.81;67.96
36192;BME280;22233;42.708;23.360;2023-02-04T06:07:11;94963.38;;;3.71;68.56
36192;BME280;22233;42.708;23.360;2023-02-04T06:09:37;94973.03;;;3.72;68.28
36192;BME280;22233;42.708;23.360;2023-02-04T06:12:02;94972.91;;;3.87;68.24
36192;BME280;22233;42.708;23.360;2023-02-04T06:14:28;94953.31;;;3.52;69.90
36192;BME280;22233;42.708;23.360;2023-02-04T06:16:53;94977.53;;;3.82;68.03
36192;BME280;22233;42.708;23.360;2023-02-04T06:19:19;94970.53;;;4.15;67.05
36192;BME280;22233;42.708;23.360;2023-02-04T06:21:44;94963.13;;;3.67;68.45
36192;BME280;22233;42.708;23.360;2023-02-04T06:24:09;94982.28;;;3.95;67.05
36192;BME280;22233;42.708;23.360;2023-02-04T06:26:35;94980.88;;;3.63;68.96
36192;BME280;22233;42.708;23.360;2023-02-04T06:29:00;94966.22;;;3.45;68.33
36192;BME280;22233;42.708;23.360;2023-02-04T06:31:26;94979.88;;;3.54;68.63
36192;BME280;22233;42.708;23.360;2023-02-04T06:33:51;94982.78;;;3.63;68.72
36192;BME280;22233;42.708;23.360;2023-02-04T06:36:16;94955.09;;;3.62;67.71
36192;BME280;22233;42.708;23.360;2023-02-04T06:38:42;94970.88;;;3.74;68.49
36192;BME280;22233;42.708;23.360;2023-02-04T06:41:07;94957.03;;;3.91;67.86
36192;BME280;22233;42.708;23.360;2023-02-04T06:43:33;94970.72;;;4.24;66.14
36192;BME280;22233;42.708;23.360;2023-02-04T06:45:58;94971.72;;;4.33;65.23
36192;BME280;22233;42.708;23.360;2023-02-04T06:48:23;94954.03;;;3.97;67.08
36192;BME280;22233;42.708;23.360;2023-02-04T06:50:49;94966.00;;;4.10;66.03
36192;BME280;22233;42.708;23.360;2023-02-04T06:53:14;94960.69;;;4.05;66.37
36192;BME280;22233;42.708;23.360;2023-02-04T06:55:40;94951.34;;;3.97;65.36
36192;BME280;22233;42.708;23.360;2023-02-04T06:58:05;94951.16;;;4.18;65.21
36192;BME280;22233;42.708;23.360;2023-02-04T07:00:30;94960.38;;;4.36;64.66
36192;BME280;22233;42.708;23.360;2023-02-04T07:02:56;94953.13;;;4.36;63.71
36192;BME280;22233;42.708;23.360;2023-02-04T07:05:23;94967.00;;;4.49;63.40
36192;BME280;22233;42.708;23.360;2023-02-04T07:07:49;94959.88;;;4.58;62.87
36192;BME280;22233;42.708;23.360;2023-02-04T07:10:15;94958.81;;;4.59;63.27
36192;BME280;22233;42.708;23.360;2023-02-04T07:12:41;94943.47;;;4.59;62.52
36192;BME280;22233;42.708;23.360;2023-02-04T07:15:07;94949.88;;;4.88;61.89
36192;BME280;22233;42.708;23.360;2023-02-04T07:17:32;94955.13;;;4.98;61.63
36192;BME280;22233;42.708;23.360;2023-02-04T07:19:58;94948.03;;;5.07;61.53
36192;BME280;22233;42.708;23.360;2023-02-04T07:22:23;94944.09;;;5.18;61.60
36192;BME280;22233;42.708;23.360;2023-02-04T07:24:49;94937.47;;;4.68;61.80
36192;BME280;22233;42.708;23.360;2023-02-04T07:27:14;94939.03;;;4.69;62.49
36192;BME280;22233;42.708;23.360;2023-02-04T07:29:39;94934.91;;;4.76;62.16
36192;BME280;22233;42.708;23.360;2023-02-04T07:32:05;94943.81;;;4.77;62.39
36192;BME280;22233;42.708;23.360;2023-02-04T07:34:30;94950.50;;;4.79;63.17
36192;BME280;22233;42.708;23.360;2023-02-04T07:36:56;94933.13;;;4.91;62.29
36192;BME280;22233;42.708;23.360;2023-02-04T07:39:21;94963.06;;;5.08;62.25
36192;BME280;22233;42.708;23.360;2023-02-04T07:41:46;94947.44;;;5.10;61.19
36192;BME280;22233;42.708;23.360;2023-02-04T07:44:12;94931.63;;;5.23;60.62
36192;BME280;22233;42.708;23.360;2023-02-04T07:46:37;94940.78;;;4.84;62.88
36192;BME280;22233;42.708;23.360;2023-02-04T07:49:03;94923.84;;;5.02;61.90
36192;BME280;22233;42.708;23.360;2023-02-04T07:51:28;94966.53;;;4.90;61.87
36192;BME280;22233;42.708;23.360;2023-02-04T07:53:54;94939.28;;;5.15;61.81
36192;BME280;22233;42.708;23.360;2023-02-04T07:56:20;94938.94;;;5.22;61.64
36192;BME280;22233;42.708;23.360;2023-02-04T07:58:45;94921.16;;;5.40;60.85
36192;BME280;22233;42.708;23.360;2023-02-04T08:01:11;94945.25;;;5.50;60.35
36192;BME280;22233;42.708;23.360;2023-02-04T08:03:36;94946.84;;;5.70;60.39
36192;BME280;22233;42.708;23.360;2023-02-04T08:06:02;94923.78;;;5.26;60.79
36192;BME280;22233;42.708;23.360;2023-02-04T08:08:27;94942.78;;;5.35;60.69
36192;BME280;22233;42.708;23.360;2023-02-04T08:10:52;94947.66;;;5.52;60.02
36192;BME280;22233;42.708;23.360;2023-02-04T08:13:18;94947.31;;;5.39;61.11
36192;BME280;22233;42.708;23.360;2023-02-04T08:15:43;94946.34;;;5.49;59.49
36192;BME280;22233;42.708;23.360;2023-02-04T08:18:08;94926.69;;;5.49;61.11
36192;BME280;22233;42.708;23.360;2023-02-04T08:20:34;94935.03;;;5.85;59.66
36192;BME280;22233;42.708;23.360;2023-02-04T08:22:59;94928.63;;;5.81;59.95
36192;BME280;22233;42.708;23.360;2023-02-04T08:25:25;94935.66;;;5.44;60.57
36192;BME280;22233;42.708;23.360;2023-02-04T08:27:50;94936.00;;;5.18;61.37
36192;BME280;22233;42.708;23.360;2023-02-04T08:30:16;94943.66;;;5.49;62.77
36192;BME280;22233;42.708;23.360;2023-02-04T08:32:41;94940.22;;;5.63;61.73
36192;BME280;22233;42.708;23.360;2023-02-04T08:35:07;94936.16;;;5.46;63.10
36192;BME280;22233;42.708;23.360;2023-02-04T08:37:33;94936.97;;;5.66;62.88
36192;BME280;22233;42.708;23.360;2023-02-04T08:39:59;94939.38;;;5.48;62.81
36192;BME280;22233;42.708;23.360;2023-02-04T08:42:24;94941.34;;;5.24;63.08
36192;BME280;22233;42.708;23.360;2023-02-04T08:44:50;94919.09;;;4.94;63.21
36192;BME280;22233;42.708;23.360;2023-02-04T08:47:15;94936.47;;;5.26;63.74
36192;BME280;22233;42.708;23.360;2023-02-04T08:49:41;94932.25;;;5.19;63.93
36192;BME280;22233;42.708;23.360;2023-02-04T08:52:06;94923.19;;;5.10;64.50
36192;BME280;22233;42.708;23.360;2023-02-04T08:54:32;94936.81;;;5.38;63.54
36192;BME280;22233;42.708;23.360;2023-02-04T08:56:59;94943.94;;;5.67;62.30
36192;BME280;22233;42.708;23.360;2023-02-04T08:59:24;94945.03;;;5.28;63.43
36192;BME280;22233;42.708;23.360;2023-02-04T09:01:50;94938.97;;;4.98;64.15
36192;BME280;22233;42.708;23.360;2023-02-04T09:04:17;94941.84;;;5.26;64.43
36192;BME280;22233;42.708;23.360;2023-02-04T09:06:43;94950.56;;;5.17;64.78
36192;BME280;22233;42.708;23.360;2023-02-04T09:09:08;94937.69;;;5.14;64.46
36192;BME280;22233;42.708;23.360;2023-02-04T09:11:34;94930.34;;;5.01;65.88
36192;BME280;22233;42.708;23.360;2023-02-04T09:13:59;94921.06;;;4.88;65.39
36192;BME280;22233;42.708;23.360;2023-02-04T09:16:24;94939.34;;;4.91;65.80
36192;BME280;22233;42.708;23.360;2023-02-04T09:18:50;94942.22;;;5.38;65.36
36192;BME280;22233;42.708;23.360;2023-02-04T09:21:15;94926.53;;;5.21;63.62
36192;BME280;22233;42.708;23.360;2023-02-04T09:23:40;94915.75;;;5.21;63.87
36192;BME280;22233;42.708;23.360;2023-02-04T09:26:06;94926.47;;;5.26;63.79
36192;BME280;22233;42.708;23.360;2023-02-04T09:28:31;94933.41;;;5.32;62.20
36192;BME280;22233;42.708;23.360;2023-02-04T09:30:57;94928.00;;;5.32;62.06
36192;BME280;22233;42.708;23.360;2023-02-04T09:33:23;94906.81;;;5.45;62.63
36192;BME280;22233;42.708;23.360;2023-02-04T09:35:48;94928.09;;;5.79;61.21
36192;BME280;22233;42.708;23.360;2023-02-04T09:38:14;94918.91;;;5.47;62.04
36192;BME280;22233;42.708;23.360;2023-02-04T09:40:42;94917.78;;;5.67;62.35
36192;BME280;22233;42.708;23.360;2023-02-04T09:43:12;94938.34;;;5.44;64.46
36192;BME280;22233;42.708;23.360;2023-02-04T09:45:40;94928.53;;;5.15;67.41
36192;BME280;22233;42.708;23.360;2023-02-04T09:48:06;94921.00;;;4.93;68.33
36192;BME280;22233;42.708;23.360;2023-02-04T09:50:32;94905.75;;;5.08;68.05
36192;BME280;22233;42.708;23.360;2023-02-04T09:53:01;94911.28;;;4.73;69.86
36192;BME280;22233;42.708;23.360;2023-02-04T09:55:33;94912.50;;;4.62;69.93
36192;BME280;22233;42.708;23.360;2023-02-04T09:57:59;94893.66;;;4.62;70.77
36192;BME280;22233;42.708;23.360;2023-02-04T10:00:27;94906.31;;;4.62;70.99
36192;BME280;22233;42.708;23.360;2023-02-04T10:02:53;94877.16;;;4.69;70.64
36192;BME280;22233;42.708;23.360;2023-02-04T10:05:31;94874.56;;;4.39;71.21
36192;BME280;22233;42.708;23.360;2023-02-04T10:07:56;94885.53;;;4.67;71.30
36192;BME280;22233;42.708;23.360;2023-02-04T10:10:24;94890.75;;;4.58;71.65
36192;BME280;22233;42.708;23.360;2023-02-04T10:12:55;94874.44;;;4.93;70.93
36192;BME280;22233;42.708;23.360;2023-02-04T10:15:21;94869.72;;;4.60;71.09
36192;BME280;22233;42.708;23.360;2023-02-04T10:17:53;94869.31;;;4.72;69.95
36192;BME280;22233;42.708;23.360;2023-02-04T10:20:22;94884.72;;;4.43;71.14
36192;BME280;22233;42.708;23.360;2023-02-04T10:22:50;94878.41;;;4.76;71.88
36192;BME280;22233;42.708;23.360;2023-02-04T10:25:19;94891.25;;;4.60;70.53
36192;BME280;22233;42.708;23.360;2023-02-04T10:27:54;94867.66;;;4.76;70.06
36192;BME280;22233;42.708;23.360;2023-02-04T10:30:23;94872.28;;;4.71;69.98
36192;BME280;22233;42.708;23.360;2023-02-04T10:32:49;94869.41;;;4.67;70.60
36192;BME280;22233;42.708;23.360;2023-02-04T10:35:16;94856.59;;;4.78;70.38
36192;BME280;22233;42.708;23.360;2023-02-04T10:37:42;94858.13;;;4.84;69.91
36192;BME280;22233;42.708;23.360;2023-02-04T10:40:31;94860.03;;;4.40;70.37
36192;BME280;22233;42.708;23.360;2023-02-04T10:42:57;94852.84;;;4.79;70.92
36192;BME280;22233;42.708;23.360;2023-02-04T10:45:29;94853.41;;;4.95;70.88
36192;BME280;22233;42.708;23.360;2023-02-04T10:47:55;94854.72;;;4.78;72.53
36192;BME280;22233;42.708;23.360;2023-02-04T10:50:26;94858.56;;;4.72;72.86
36192;BME280;22233;42.708;23.360;2023-02-04T10:52:54;94853.53;;;4.85;72.48
36192;BME280;22233;42.708;23.360;2023-02-04T10:55:42;94858.31;;;4.69;72.43
36192;BME280;22233;42.708;23.360;2023-02-04T10:58:11;94844.34;;;4.48;73.44
36192;BME280;22233;42.708;23.360;2023-02-04T11:00:37;94858.28;;;4.74;72.35
36192;BME280;22233;42.708;23.360;2023-02-04T11:03:21;94834.47;;;4.62;72.59
36192;BME280;22233;42.708;23.360;2023-02-04T11:05:47;94840.06;;;4.47;73.97
36192;BME280;22233;42.708;23.360;2023-02-04T11:08:27;94853.63;;;4.36;73.62
36192;BME280;22233;42.708;23.360;2023-02-04T11:11:00;94828.06;;;4.15;74.04
36192;BME280;22233;42.708;23.360;2023-02-04T11:26:48;94825.75;;;4.70;72.78
36192;BME280;22233;42.708;23.360;2023-02-04T11:29:29;94833.78;;;4.75;71.42
36192;BME280;22233;42.708;23.360;2023-02-04T11:32:28;94832.47;;;4.92;71.86
36192;BME280;22233;42.708;23.360;2023-02-04T11:35:19;94832.66;;;4.76;72.04
36192;BME280;22233;42.708;23.360;2023-02-04T11:37:45;94838.19;;;4.66;72.58
36192;BME280;22233;42.708;23.360;2023-02-04T11:40:29;94822.91;;;4.62;72.46
36192;BME280;22233;42.708;23.360;2023-02-04T11:43:01;94847.50;;;4.55;73.44
36192;BME280;22233;42.708;23.360;2023-02-04T11:45:32;94837.38;;;4.47;73.25
36192;BME280;22233;42.708;23.360;2023-02-04T11:48:01;94854.97;;;4.58;73.66
36192;BME280;22233;42.708;23.360;2023-02-04T11:50:33;94844.91;;;4.45;72.71
36192;BME280;22233;42.708;23.360;2023-02-04T11:53:00;94803.22;;;4.47;73.73
36192;BME280;22233;42.708;23.360;2023-02-04T11:55:27;94841.53;;;4.58;73.91
36192;BME280;22233;42.708;23.360;2023-02-04T11:57:54;94838.56;;;4.59;74.31
36192;BME280;22233;42.708;23.360;2023-02-04T12:00:25;94835.28;;;4.63;73.32
36192;BME280;22233;42.708;23.360;2023-02-04T12:03:21;94837.78;;;4.78;73.29
36192;BME280;22233;42.708;23.360;2023-02-04T12:05:48;94821.75;;;4.68;73.06
36192;BME280;22233;42.708;23.360;2023-02-04T12:11:22;94816.38;;;4.68;74.29
36192;BME280;22233;42.708;23.360;2023-02-04T12:13:52;94834.78;;;4.79;72.90
36192;BME280;22233;42.708;23.360;2023-02-04T12:16:18;94827.22;;;4.82;73.74
36192;BME280;22233;42.708;23.360;2023-02-04T12:18:44;94817.63;;;4.94;72.96
36192;BME280;22233;42.708;23.360;2023-02-04T12:21:09;94819.06;;;4.87;73.08
36192;BME280;22233;42.708;23.360;2023-02-04T12:23:35;94831.78;;;4.62;74.13
36192;BME280;22233;42.708;23.360;2023-02-04T12:26:00;94797.88;;;4.42;74.55
36192;BME280;22233;42.708;23.360;2023-02-04T12:28:26;94822.78;;;4.72;74.46
36192;BME280;22233;42.708;23.360;2023-02-04T12:30:53;94834.75;;;4.60;75.37
36192;BME280;22233;42.708;23.360;2023-02-04T12:33:18;94799.88;;;4.55;74.91
36192;BME280;22233;42.708;23.360;2023-02-04T12:35:44;94809.75;;;4.60;74.77
36192;BME280;22233;42.708;23.360;2023-02-04T12:38:10;94805.16;;;4.42;73.91
36192;BME280;22233;42.708;23.360;2023-02-04T12:40:35;94808.38;;;4.19;75.01
36192;BME280;22233;42.708;23.360;2023-02-04T12:43:01;94821.59;;;4.16;75.46
36192;BME280;22233;42.708;23.360;2023-02-04T12:45:26;94815.69;;;4.38;75.48
36192;BME280;22233;42.708;23.360;2023-02-04T12:47:52;94800.31;;;4.19;75.31
36192;BME280;22233;42.708;23.360;2023-02-04T12:50:18;94810.03;;;4.39;74.62
36192;BME280;22233;42.708;23.360;2023-02-04T12:52:55;94805.09;;;4.47;74.92
36192;BME280;22233;42.708;23.360;2023-02-04T12:55:22;94804.69;;;4.34;74.96
36192;BME280;22233;42.708;23.360;2023-02-04T12:57:49;94807.69;;;4.33;75.24
36192;BME280;22233;42.708;23.360;2023-02-04T13:00:16;94799.63;;;4.33;73.68
36192;BME280;22233;42.708;23.360;2023-02-04T13:02:42;94813.19;;;4.66;73.26
36192;BME280;22233;42.708;23.360;2023-02-04T13:05:08;94800.81;;;4.46;72.35
36192;BME280;22233;42.708;23.360;2023-02-04T13:07:35;94792.91;;;4.73;72.03
36192;BME280;22233;42.708;23.360;2023-02-04T13:10:00;94798.34;;;4.68;72.36
36192;BME280;22233;42.708;23.360;2023-02-04T13:12:26;94793.19;;;4.72;72.17
36192;BME280;22233;42.708;23.360;2023-02-04T13:14:51;94805.13;;;5.04;71.04
36192;BME280;22233;42.708;23.360;2023-02-04T13:17:17;94813.59;;;5.11;69.52